EFKS

Kuusamo Airport

Kuusamo, Finland
METAR EFKS 220750Z AUTO 27010KT 9999 BKN018 03/03 Q0991
Observed Flight Rules
Oct-22 @ 07:50 UTC (29 minutes ago) Marginal Visual Flight Rules
Wind Visibility Clouds
270° at 10 knots 10,000+ meters
  • Broken at 1,800' AGL
Temperatures Readings
Current 3°C / 37°F
Dewpoint 3°C / 37°F
Humidity 100%
Altimeter 29.26" Hg
Pressure 991 hPa
Elevation 263
METAR EFKS 220750Z AUTO 27010KT 9999 BKN018 03/03 Q0991
Observed Flight Rules
Oct-22 @ 07:50 UTC
(29 minutes ago)
MVFR
Wind Visibility
270° at 10 knots 10,000+ meters
Clouds
  • Broken at 1,800' AGL
Temperature Dewpoint
3°C / 37°F 3°C / 37°F
Humidity Altimeter Pressure
100% 29.26" Hg 991 hPa